sensor_id;sensor_type;location;lat;lon;timestamp;pressure;altitude;pressure_sealevel;temperature;humidity
37066;BME280;22981;43.080;25.550;2024-03-08T00:01:46;99796.71;;;6.50;79.50
37066;BME280;22981;43.080;25.550;2024-03-08T00:04:14;99794.30;;;6.44;79.70
37066;BME280;22981;43.080;25.550;2024-03-08T00:06:42;99799.86;;;6.39;79.85
37066;BME280;22981;43.080;25.550;2024-03-08T00:09:11;99799.91;;;6.35;80.12
37066;BME280;22981;43.080;25.550;2024-03-08T00:11:40;99804.88;;;6.34;80.27
37066;BME280;22981;43.080;25.550;2024-03-08T00:14:07;99803.94;;;6.31;80.47
37066;BME280;22981;43.080;25.550;2024-03-08T00:16:35;99798.78;;;6.29;80.61
37066;BME280;22981;43.080;25.550;2024-03-08T00:19:03;99791.31;;;6.28;80.74
37066;BME280;22981;43.080;25.550;2024-03-08T00:21:31;99790.95;;;6.32;80.76
37066;BME280;22981;43.080;25.550;2024-03-08T00:23:58;99789.94;;;6.33;80.75
37066;BME280;22981;43.080;25.550;2024-03-08T00:26:26;99786.70;;;6.26;80.80
37066;BME280;22981;43.080;25.550;2024-03-08T00:28:55;99789.72;;;6.23;81.09
37066;BME280;22981;43.080;25.550;2024-03-08T00:31:23;99782.05;;;6.24;81.18
37066;BME280;22981;43.080;25.550;2024-03-08T00:33:51;99777.40;;;6.26;81.25
37066;BME280;22981;43.080;25.550;2024-03-08T00:36:19;99784.16;;;6.29;81.18
37066;BME280;22981;43.080;25.550;2024-03-08T00:38:46;99785.69;;;6.27;81.14
37066;BME280;22981;43.080;25.550;2024-03-08T00:41:14;99781.74;;;6.23;81.15
37066;BME280;22981;43.080;25.550;2024-03-08T00:43:41;99783.43;;;6.20;81.33
37066;BME280;22981;43.080;25.550;2024-03-08T00:46:09;99778.31;;;6.19;81.41
37066;BME280;22981;43.080;25.550;2024-03-08T00:48:37;99778.66;;;6.16;81.47
37066;BME280;22981;43.080;25.550;2024-03-08T00:51:04;99779.17;;;6.15;81.52
37066;BME280;22981;43.080;25.550;2024-03-08T00:53:32;99783.98;;;6.16;81.49
37066;BME280;22981;43.080;25.550;2024-03-08T00:55:59;99788.79;;;6.16;81.54
37066;BME280;22981;43.080;25.550;2024-03-08T00:58:27;99782.70;;;6.12;81.47
37066;BME280;22981;43.080;25.550;2024-03-08T01:00:55;99780.55;;;6.11;81.55
37066;BME280;22981;43.080;25.550;2024-03-08T01:03:23;99782.19;;;6.12;81.62
37066;BME280;22981;43.080;25.550;2024-03-08T01:05:51;99785.50;;;6.14;81.62
37066;BME280;22981;43.080;25.550;2024-03-08T01:08:18;99785.77;;;6.19;81.58
37066;BME280;22981;43.080;25.550;2024-03-08T01:10:46;99780.41;;;6.23;81.50
37066;BME280;22981;43.080;25.550;2024-03-08T01:13:13;99781.19;;;6.28;81.36
37066;BME280;22981;43.080;25.550;2024-03-08T01:15:41;99780.52;;;6.30;81.30
37066;BME280;22981;43.080;25.550;2024-03-08T01:18:09;99781.97;;;6.33;81.26
37066;BME280;22981;43.080;25.550;2024-03-08T01:20:36;99777.30;;;6.35;81.30
37066;BME280;22981;43.080;25.550;2024-03-08T01:23:04;99777.11;;;6.36;81.28
37066;BME280;22981;43.080;25.550;2024-03-08T01:25:36;99774.77;;;6.37;81.27
37066;BME280;22981;43.080;25.550;2024-03-08T01:28:04;99775.42;;;6.39;81.16
37066;BME280;22981;43.080;25.550;2024-03-08T01:30:32;99786.56;;;6.39;81.05
37066;BME280;22981;43.080;25.550;2024-03-08T01:33:01;99788.56;;;6.37;81.02
37066;BME280;22981;43.080;25.550;2024-03-08T01:35:28;99783.95;;;6.35;81.06
37066;BME280;22981;43.080;25.550;2024-03-08T01:37:57;99782.73;;;6.37;81.03
37066;BME280;22981;43.080;25.550;2024-03-08T01:40:24;99784.41;;;6.38;80.97
37066;BME280;22981;43.080;25.550;2024-03-08T01:42:52;99783.25;;;6.37;80.93
37066;BME280;22981;43.080;25.550;2024-03-08T01:45:20;99786.46;;;6.32;81.03
37066;BME280;22981;43.080;25.550;2024-03-08T01:47:47;99790.77;;;6.33;81.17
37066;BME280;22981;43.080;25.550;2024-03-08T01:50:15;99792.24;;;6.36;81.19
37066;BME280;22981;43.080;25.550;2024-03-08T01:52:43;99791.53;;;6.38;81.14
37066;BME280;22981;43.080;25.550;2024-03-08T01:55:12;99786.92;;;6.36;81.06
37066;BME280;22981;43.080;25.550;2024-03-08T01:57:41;99789.27;;;6.35;81.09
37066;BME280;22981;43.080;25.550;2024-03-08T02:00:09;99797.09;;;6.32;81.16
37066;BME280;22981;43.080;25.550;2024-03-08T02:02:38;99799.34;;;6.24;81.30
37066;BME280;22981;43.080;25.550;2024-03-08T02:05:07;99795.39;;;6.20;81.61
37066;BME280;22981;43.080;25.550;2024-03-08T02:07:35;99792.78;;;6.16;81.85
37066;BME280;22981;43.080;25.550;2024-03-08T02:10:02;99795.13;;;6.15;82.07
37066;BME280;22981;43.080;25.550;2024-03-08T02:12:30;99792.30;;;6.17;82.13
37066;BME280;22981;43.080;25.550;2024-03-08T02:14:57;99791.91;;;6.20;82.08
37066;BME280;22981;43.080;25.550;2024-03-08T02:17:25;99796.67;;;6.24;81.94
37066;BME280;22981;43.080;25.550;2024-03-08T06:17:45;99913.84;;;5.58;81.89
37066;BME280;22981;43.080;25.550;2024-03-08T06:20:13;99919.81;;;5.56;81.96
37066;BME280;22981;43.080;25.550;2024-03-08T06:22:42;99915.20;;;5.54;82.10
37066;BME280;22981;43.080;25.550;2024-03-08T06:25:11;99918.67;;;5.55;82.32
37066;BME280;22981;43.080;25.550;2024-03-08T06:27:41;99920.00;;;5.55;82.48
37066;BME280;22981;43.080;25.550;2024-03-08T06:30:10;99924.48;;;5.54;82.62
37066;BME280;22981;43.080;25.550;2024-03-08T06:32:38;99927.65;;;5.53;82.80
37066;BME280;22981;43.080;25.550;2024-03-08T06:35:07;99932.14;;;5.53;82.87
37066;BME280;22981;43.080;25.550;2024-03-08T06:37:39;99923.69;;;5.49;82.92
37066;BME280;22981;43.080;25.550;2024-03-08T06:40:08;99936.30;;;5.47;83.00
37066;BME280;22981;43.080;25.550;2024-03-08T06:42:38;99937.12;;;5.48;83.07
37066;BME280;22981;43.080;25.550;2024-03-08T06:45:05;99935.80;;;5.48;83.14
37066;BME280;22981;43.080;25.550;2024-03-08T06:47:35;99940.61;;;5.52;83.20
37066;BME280;22981;43.080;25.550;2024-03-08T06:50:03;99937.27;;;5.55;83.10
37066;BME280;22981;43.080;25.550;2024-03-08T06:52:31;99940.55;;;5.57;83.15
37066;BME280;22981;43.080;25.550;2024-03-08T06:54:59;99944.89;;;5.58;83.13
37066;BME280;22981;43.080;25.550;2024-03-08T06:57:28;99949.00;;;5.60;83.13
37066;BME280;22981;43.080;25.550;2024-03-08T06:59:56;99946.52;;;5.63;83.06
37066;BME280;22981;43.080;25.550;2024-03-08T07:04:49;99949.33;;;5.65;82.97
37066;BME280;22981;43.080;25.550;2024-03-08T07:07:16;99958.44;;;5.67;82.87
37066;BME280;22981;43.080;25.550;2024-03-08T07:09:46;99952.30;;;5.66;82.93
37066;BME280;22981;43.080;25.550;2024-03-08T07:12:15;99956.11;;;5.68;82.94
37066;BME280;22981;43.080;25.550;2024-03-08T07:14:44;99963.41;;;5.70;82.92
37066;BME280;22981;43.080;25.550;2024-03-08T07:17:12;99961.20;;;5.73;82.90
37066;BME280;22981;43.080;25.550;2024-03-08T07:19:40;99974.33;;;5.75;82.85
37066;BME280;22981;43.080;25.550;2024-03-08T07:22:07;99976.16;;;5.74;82.78
37066;BME280;22981;43.080;25.550;2024-03-08T07:24:36;99974.67;;;5.72;82.77
37066;BME280;22981;43.080;25.550;2024-03-08T07:27:05;99978.36;;;5.67;82.81
37066;BME280;22981;43.080;25.550;2024-03-08T07:29:33;99982.19;;;5.64;82.87
37066;BME280;22981;43.080;25.550;2024-03-08T07:32:01;99980.38;;;5.61;82.90
37066;BME280;22981;43.080;25.550;2024-03-08T07:34:30;99983.22;;;5.59;83.00
37066;BME280;22981;43.080;25.550;2024-03-08T07:36:58;99986.70;;;5.60;82.94
37066;BME280;22981;43.080;25.550;2024-03-08T07:39:26;99990.84;;;5.62;83.00
37066;BME280;22981;43.080;25.550;2024-03-08T07:41:53;99993.31;;;5.64;83.00
37066;BME280;22981;43.080;25.550;2024-03-08T07:44:21;99995.81;;;5.65;82.95
37066;BME280;22981;43.080;25.550;2024-03-08T07:46:50;99994.14;;;5.64;82.97
37066;BME280;22981;43.080;25.550;2024-03-08T07:49:17;99999.95;;;5.64;83.00
37066;BME280;22981;43.080;25.550;2024-03-08T07:51:45;99997.97;;;5.66;83.06
37066;BME280;22981;43.080;25.550;2024-03-08T07:54:12;99999.80;;;5.65;83.16
37066;BME280;22981;43.080;25.550;2024-03-08T07:56:40;100003.78;;;5.65;83.22
37066;BME280;22981;43.080;25.550;2024-03-08T07:59:08;100000.94;;;5.67;83.21
37066;BME280;22981;43.080;25.550;2024-03-08T08:01:38;100001.60;;;5.65;83.16
37066;BME280;22981;43.080;25.550;2024-03-08T08:04:06;100005.95;;;5.62;83.17
37066;BME280;22981;43.080;25.550;2024-03-08T08:06:35;100007.45;;;5.56;83.16
37066;BME280;22981;43.080;25.550;2024-03-08T08:09:04;100006.31;;;5.55;83.15
37066;BME280;22981;43.080;25.550;2024-03-08T08:11:32;100012.62;;;5.58;83.15
37066;BME280;22981;43.080;25.550;2024-03-08T08:14:00;100012.94;;;5.59;83.12
37066;BME280;22981;43.080;25.550;2024-03-08T08:16:27;100015.94;;;5.56;83.15
37066;BME280;22981;43.080;25.550;2024-03-08T08:18:55;100012.95;;;5.55;83.23
37066;BME280;22981;43.080;25.550;2024-03-08T08:21:23;100017.26;;;5.56;83.23
37066;BME280;22981;43.080;25.550;2024-03-08T08:23:52;100017.42;;;5.58;83.23
37066;BME280;22981;43.080;25.550;2024-03-08T08:26:21;100023.37;;;5.60;83.18
37066;BME280;22981;43.080;25.550;2024-03-08T08:28:48;100023.03;;;5.63;83.13
37066;BME280;22981;43.080;25.550;2024-03-08T08:31:16;100020.20;;;5.65;83.12
37066;BME280;22981;43.080;25.550;2024-03-08T08:33:43;100026.69;;;5.66;83.07
37066;BME280;22981;43.080;25.550;2024-03-08T08:36:11;100032.00;;;5.66;83.05
37066;BME280;22981;43.080;25.550;2024-03-08T08:38:40;100026.84;;;5.65;83.03
37066;BME280;22981;43.080;25.550;2024-03-08T08:41:10;100031.17;;;5.66;82.99
37066;BME280;22981;43.080;25.550;2024-03-08T08:43:37;100032.82;;;5.67;82.93
37066;BME280;22981;43.080;25.550;2024-03-08T08:46:06;100033.14;;;5.68;82.96
37066;BME280;22981;43.080;25.550;2024-03-08T08:48:33;100029.83;;;5.70;82.92
37066;BME280;22981;43.080;25.550;2024-03-08T08:51:01;100036.28;;;5.71;82.93
37066;BME280;22981;43.080;25.550;2024-03-08T08:53:30;100037.29;;;5.70;82.95
37066;BME280;22981;43.080;25.550;2024-03-08T08:55:58;100009.49;;;5.50;82.99
37066;BME280;22981;43.080;25.550;2024-03-08T08:58:27;100038.27;;;5.69;83.06
37066;BME280;22981;43.080;25.550;2024-03-08T09:00:54;100039.42;;;5.75;83.08
37066;BME280;22981;43.080;25.550;2024-03-08T09:03:22;100035.92;;;5.78;83.00
37066;BME280;22981;43.080;25.550;2024-03-08T09:05:50;100040.04;;;5.81;82.93
37066;BME280;22981;43.080;25.550;2024-03-08T09:08:20;100039.91;;;5.78;82.85
37066;BME280;22981;43.080;25.550;2024-03-08T09:10:47;100036.74;;;5.79;82.80
37066;BME280;22981;43.080;25.550;2024-03-08T09:13:18;100039.40;;;5.79;82.77
37066;BME280;22981;43.080;25.550;2024-03-08T09:16:01;100038.39;;;5.80;82.75
37066;BME280;22981;43.080;25.550;2024-03-08T09:18:31;100041.37;;;5.81;82.72
37066;BME280;22981;43.080;25.550;2024-03-08T09:20:59;100040.73;;;5.79;82.59
37066;BME280;22981;43.080;25.550;2024-03-08T09:23:27;100042.72;;;5.77;82.64
37066;BME280;22981;43.080;25.550;2024-03-08T09:25:59;100047.53;;;5.77;82.69
37066;BME280;22981;43.080;25.550;2024-03-08T09:28:27;100047.37;;;5.79;82.69
37066;BME280;22981;43.080;25.550;2024-03-08T09:30:55;100051.52;;;5.77;82.62
37066;BME280;22981;43.080;25.550;2024-03-08T09:33:24;100060.49;;;5.76;82.62
37066;BME280;22981;43.080;25.550;2024-03-08T09:35:53;100055.36;;;5.75;82.50
37066;BME280;22981;43.080;25.550;2024-03-08T09:38:21;100053.06;;;5.68;82.55
37066;BME280;22981;43.080;25.550;2024-03-08T09:40:48;100058.05;;;5.67;82.68
37066;BME280;22981;43.080;25.550;2024-03-08T09:43:16;100054.58;;;5.66;82.74
37066;BME280;22981;43.080;25.550;2024-03-08T09:45:46;100055.22;;;5.68;82.81
37066;BME280;22981;43.080;25.550;2024-03-08T09:48:23;100062.36;;;5.68;82.80
37066;BME280;22981;43.080;25.550;2024-03-08T09:50:47;100057.22;;;5.70;82.81
37066;BME280;22981;43.080;25.550;2024-03-08T09:53:15;100062.66;;;5.73;82.76
37066;BME280;22981;43.080;25.550;2024-03-08T09:55:43;100057.85;;;5.72;82.73
37066;BME280;22981;43.080;25.550;2024-03-08T09:58:16;100063.03;;;5.70;82.71
37066;BME280;22981;43.080;25.550;2024-03-08T10:00:46;100059.52;;;5.69;82.74
37066;BME280;22981;43.080;25.550;2024-03-08T10:03:13;100068.34;;;5.70;82.79
37066;BME280;22981;43.080;25.550;2024-03-08T10:05:44;100065.50;;;5.71;82.83
37066;BME280;22981;43.080;25.550;2024-03-08T10:08:13;100067.47;;;5.73;82.81
37066;BME280;22981;43.080;25.550;2024-03-08T10:10:40;100067.34;;;5.71;82.65
37066;BME280;22981;43.080;25.550;2024-03-08T10:13:08;100064.36;;;5.70;82.72
37066;BME280;22981;43.080;25.550;2024-03-08T10:15:39;100067.02;;;5.70;82.80
37066;BME280;22981;43.080;25.550;2024-03-08T10:18:07;100070.65;;;5.69;82.75
37066;BME280;22981;43.080;25.550;2024-03-08T10:20:36;100073.49;;;5.67;82.82
37066;BME280;22981;43.080;25.550;2024-03-08T10:23:04;100074.98;;;5.70;82.81
37066;BME280;22981;43.080;25.550;2024-03-08T10:25:32;100077.14;;;5.70;82.78
37066;BME280;22981;43.080;25.550;2024-03-08T10:28:02;100089.09;;;5.70;82.81
37066;BME280;22981;43.080;25.550;2024-03-08T10:30:30;100088.42;;;5.68;82.79
37066;BME280;22981;43.080;25.550;2024-03-08T10:32:58;100079.98;;;5.61;82.72
37066;BME280;22981;43.080;25.550;2024-03-08T10:35:26;100085.47;;;5.59;82.81
37066;BME280;22981;43.080;25.550;2024-03-08T10:37:55;100080.50;;;5.56;82.82
37066;BME280;22981;43.080;25.550;2024-03-08T10:40:28;100079.67;;;5.56;82.87
37066;BME280;22981;43.080;25.550;2024-03-08T10:42:58;100072.53;;;5.56;82.87
37066;BME280;22981;43.080;25.550;2024-03-08T10:45:39;100068.55;;;5.56;82.79
37066;BME280;22981;43.080;25.550;2024-03-08T10:48:23;100072.88;;;5.57;82.81
37066;BME280;22981;43.080;25.550;2024-03-08T10:50:49;100063.22;;;5.60;82.70
37066;BME280;22981;43.080;25.550;2024-03-08T10:53:20;100061.22;;;5.66;82.63
37066;BME280;22981;43.080;25.550;2024-03-08T10:55:49;100070.66;;;5.65;82.55
37066;BME280;22981;43.080;25.550;2024-03-08T10:58:22;100076.67;;;5.63;82.53
37066;BME280;22981;43.080;25.550;2024-03-08T11:00:50;100075.17;;;5.60;82.46
37066;BME280;22981;43.080;25.550;2024-03-08T11:08:45;100071.69;;;5.60;82.52
37066;BME280;22981;43.080;25.550;2024-03-08T11:11:34;100065.55;;;5.59;82.56
37066;BME280;22981;43.080;25.550;2024-03-08T11:13:59;100072.38;;;5.58;82.60
37066;BME280;22981;43.080;25.550;2024-03-08T11:19:06;100065.23;;;5.58;82.62
37066;BME280;22981;43.080;25.550;2024-03-08T11:21:36;100069.86;;;5.60;82.66
37066;BME280;22981;43.080;25.550;2024-03-08T11:24:08;100055.42;;;5.63;82.57
37066;BME280;22981;43.080;25.550;2024-03-08T11:26:38;100052.92;;;5.65;82.47
37066;BME280;22981;43.080;25.550;2024-03-08T11:32:09;100060.70;;;5.71;82.35
37066;BME280;22981;43.080;25.550;2024-03-08T11:34:39;100055.38;;;5.71;82.22
37066;BME280;22981;43.080;25.550;2024-03-08T11:37:12;100057.52;;;5.75;82.15
37066;BME280;22981;43.080;25.550;2024-03-08T11:39:48;100055.87;;;5.74;82.11
37066;BME280;22981;43.080;25.550;2024-03-08T11:42:16;100058.84;;;5.75;82.10
37066;BME280;22981;43.080;25.550;2024-03-08T11:44:49;100064.81;;;5.73;82.02
37066;BME280;22981;43.080;25.550;2024-03-08T11:47:17;100061.86;;;5.68;81.99
37066;BME280;22981;43.080;25.550;2024-03-08T11:49:45;100063.05;;;5.66;82.04
37066;BME280;22981;43.080;25.550;2024-03-08T11:52:18;100054.89;;;5.67;82.05
37066;BME280;22981;43.080;25.550;2024-03-08T11:54:54;100058.04;;;5.71;82.04
37066;BME280;22981;43.080;25.550;2024-03-08T11:57:23;100058.55;;;5.70;81.93
37066;BME280;22981;43.080;25.550;2024-03-08T11:59:52;100055.53;;;5.69;81.88
37066;BME280;22981;43.080;25.550;2024-03-08T12:02:19;100054.89;;;5.67;81.95
37066;BME280;22981;43.080;25.550;2024-03-08T12:04:47;100056.91;;;5.65;82.06
37066;BME280;22981;43.080;25.550;2024-03-08T12:07:15;100051.75;;;5.64;82.12
37066;BME280;22981;43.080;25.550;2024-03-08T12:10:02;100055.42;;;5.63;82.10
37066;BME280;22981;43.080;25.550;2024-03-08T12:12:14;100063.40;;;5.59;82.08
37066;BME280;22981;43.080;25.550;2024-03-08T12:14:43;100065.89;;;5.56;82.12
37066;BME280;22981;43.080;25.550;2024-03-08T12:17:11;100066.72;;;5.57;82.26
37066;BME280;22981;43.080;25.550;2024-03-08T12:19:40;100063.60;;;5.53;82.22
37066;BME280;22981;43.080;25.550;2024-03-08T12:22:09;100058.44;;;5.51;82.30
37066;BME280;22981;43.080;25.550;2024-03-08T12:24:37;100061.28;;;5.50;82.36
37066;BME280;22981;43.080;25.550;2024-03-08T12:27:27;100062.28;;;5.49;82.34
37066;BME280;22981;43.080;25.550;2024-03-08T12:29:37;100067.75;;;5.47;82.35
37066;BME280;22981;43.080;25.550;2024-03-08T12:32:05;100060.66;;;5.44;82.32
37066;BME280;22981;43.080;25.550;2024-03-08T12:34:33;100058.65;;;5.42;82.31
37066;BME280;22981;43.080;25.550;2024-03-08T12:37:01;100058.84;;;5.40;82.36
37066;BME280;22981;43.080;25.550;2024-03-08T12:39:30;100058.65;;;5.42;82.42
37066;BME280;22981;43.080;25.550;2024-03-08T12:41:59;100055.17;;;5.41;82.46
37066;BME280;22981;43.080;25.550;2024-03-08T12:44:27;100058.16;;;5.38;82.52
37066;BME280;22981;43.080;25.550;2024-03-08T12:46:55;100058.01;;;5.40;82.54
37066;BME280;22981;43.080;25.550;2024-03-08T12:49:24;100054.16;;;5.42;82.65
37066;BME280;22981;43.080;25.550;2024-03-08T12:51:53;100055.48;;;5.46;82.63
37066;BME280;22981;43.080;25.550;2024-03-08T12:54:21;100054.32;;;5.49;82.60
37066;BME280;22981;43.080;25.550;2024-03-08T12:56:49;100048.49;;;5.53;82.46
37066;BME280;22981;43.080;25.550;2024-03-08T12:59:19;100055.97;;;5.50;82.29
37066;BME280;22981;43.080;25.550;2024-03-08T13:01:48;100051.66;;;5.49;82.21
37066;BME280;22981;43.080;25.550;2024-03-08T13:04:17;100064.12;;;5.48;82.09
37066;BME280;22981;43.080;25.550;2024-03-08T13:06:45;100062.79;;;5.48;82.08
37066;BME280;22981;43.080;25.550;2024-03-08T13:09:14;100062.27;;;5.53;82.15
37066;BME280;22981;43.080;25.550;2024-03-08T13:11:42;100069.05;;;5.56;82.09
37066;BME280;22981;43.080;25.550;2024-03-08T13:14:09;100064.75;;;5.55;82.05
37066;BME280;22981;43.080;25.550;2024-03-08T13:16:37;100062.59;;;5.54;82.05
37066;BME280;22981;43.080;25.550;2024-03-08T13:19:04;100065.75;;;5.53;82.01
37066;BME280;22981;43.080;25.550;2024-03-08T13:21:32;100064.42;;;5.53;82.08
37066;BME280;22981;43.080;25.550;2024-03-08T13:24:01;100062.27;;;5.53;82.04
37066;BME280;22981;43.080;25.550;2024-03-08T13:26:29;100065.77;;;5.49;82.00
37066;BME280;22981;43.080;25.550;2024-03-08T13:28:59;100064.45;;;5.45;82.04
37066;BME280;22981;43.080;25.550;2024-03-08T13:31:26;100067.61;;;5.45;82.16
37066;BME280;22981;43.080;25.550;2024-03-08T13:33:54;100067.93;;;5.46;82.20
37066;BME280;22981;43.080;25.550;2024-03-08T13:36:23;100065.80;;;5.41;82.23
37066;BME280;22981;43.080;25.550;2024-03-08T13:38:53;100066.62;;;5.42;82.33
37066;BME280;22981;43.080;25.550;2024-03-08T13:41:20;100065.61;;;5.43;82.30
37066;BME280;22981;43.080;25.550;2024-03-08T13:43:49;100063.63;;;5.45;82.27
37066;BME280;22981;43.080;25.550;2024-03-08T13:46:18;100065.28;;;5.46;82.25
37066;BME280;22981;43.080;25.550;2024-03-08T13:48:45;100063.30;;;5.44;82.28
37066;BME280;22981;43.080;25.550;2024-03-08T13:51:14;100062.63;;;5.42;82.31
37066;BME280;22981;43.080;25.550;2024-03-08T13:53:43;100061.48;;;5.40;82.38
37066;BME280;22981;43.080;25.550;2024-03-08T13:56:11;100063.15;;;5.37;82.51
37066;BME280;22981;43.080;25.550;2024-03-08T13:58:38;100064.80;;;5.38;82.52
37066;BME280;22981;43.080;25.550;2024-03-08T14:01:07;100063.66;;;5.37;82.51
37066;BME280;22981;43.080;25.550;2024-03-08T14:03:36;100068.64;;;5.36;82.50
37066;BME280;22981;43.080;25.550;2024-03-08T14:06:03;100062.65;;;5.38;82.57
37066;BME280;22981;43.080;25.550;2024-03-08T14:08:33;100067.30;;;5.40;82.66
37066;BME280;22981;43.080;25.550;2024-03-08T14:11:00;100065.13;;;5.39;82.60
37066;BME280;22981;43.080;25.550;2024-03-08T14:13:29;100059.16;;;5.41;82.61
37066;BME280;22981;43.080;25.550;2024-03-08T14:15:57;100054.34;;;5.45;82.59
37066;BME280;22981;43.080;25.550;2024-03-08T14:18:24;100054.84;;;5.44;82.57
37066;BME280;22981;43.080;25.550;2024-03-08T14:20:52;100054.02;;;5.44;82.55
37066;BME280;22981;43.080;25.550;2024-03-08T14:23:20;100031.00;;;5.28;82.42
37066;BME280;22981;43.080;25.550;2024-03-08T14:25:50;100055.19;;;5.37;82.44
37066;BME280;22981;43.080;25.550;2024-03-08T14:28:18;100048.06;;;5.34;82.46
37066;BME280;22981;43.080;25.550;2024-03-08T14:30:46;100048.88;;;5.34;82.50
37066;BME280;22981;43.080;25.550;2024-03-08T14:33:13;100053.19;;;5.35;82.46
37066;BME280;22981;43.080;25.550;2024-03-08T14:35:41;100049.70;;;5.35;82.35
37066;BME280;22981;43.080;25.550;2024-03-08T14:38:10;100049.89;;;5.33;82.35
37066;BME280;22981;43.080;25.550;2024-03-08T14:40:39;100049.89;;;5.33;82.29
37066;BME280;22981;43.080;25.550;2024-03-08T14:43:07;100049.70;;;5.35;82.28
37066;BME280;22981;43.080;25.550;2024-03-08T14:45:34;100050.88;;;5.36;82.25
37066;BME280;22981;43.080;25.550;2024-03-08T14:48:03;100049.55;;;5.36;82.25
37066;BME280;22981;43.080;25.550;2024-03-08T14:50:31;100045.39;;;5.38;82.23
37066;BME280;22981;43.080;25.550;2024-03-08T14:52:59;100045.91;;;5.33;82.14
37066;BME280;22981;43.080;25.550;2024-03-08T14:55:27;100043.25;;;5.33;82.21
37066;BME280;22981;43.080;25.550;2024-03-08T14:57:56;100044.26;;;5.32;82.19
37066;BME280;22981;43.080;25.550;2024-03-08T15:00:23;100040.11;;;5.30;82.19
37066;BME280;22981;43.080;25.550;2024-03-08T15:02:56;100042.44;;;5.28;82.16
37066;BME280;22981;43.080;25.550;2024-03-08T15:05:24;100048.07;;;5.30;82.10
37066;BME280;22981;43.080;25.550;2024-03-08T15:07:56;100049.91;;;5.29;82.11
37066;BME280;22981;43.080;25.550;2024-03-08T15:10:25;100052.38;;;5.31;82.08
37066;BME280;22981;43.080;25.550;2024-03-08T15:12:52;100050.08;;;5.27;82.08
37066;BME280;22981;43.080;25.550;2024-03-08T15:15:22;100049.91;;;5.29;82.12
37066;BME280;22981;43.080;25.550;2024-03-08T15:17:51;100055.39;;;5.27;82.11
37066;BME280;22981;43.080;25.550;2024-03-08T15:20:20;100053.23;;;5.27;82.16
37066;BME280;22981;43.080;25.550;2024-03-08T15:22:53;100056.37;;;5.26;82.18
37066;BME280;22981;43.080;25.550;2024-03-08T15:25:21;100060.53;;;5.25;82.24
37066;BME280;22981;43.080;25.550;2024-03-08T15:27:55;100063.51;;;5.26;82.24
37066;BME280;22981;43.080;25.550;2024-03-08T15:30:24;100066.17;;;5.22;82.18
37066;BME280;22981;43.080;25.550;2024-03-08T15:32:56;100069.19;;;5.19;82.19
37066;BME280;22981;43.080;25.550;2024-03-08T15:35:25;100065.53;;;5.16;82.19
37066;BME280;22981;43.080;25.550;2024-03-08T15:37:53;100066.69;;;5.13;82.23
37066;BME280;22981;43.080;25.550;2024-03-08T15:40:24;100074.83;;;5.16;82.26
37066;BME280;22981;43.080;25.550;2024-03-08T15:45:23;100077.48;;;5.16;82.23
37066;BME280;22981;43.080;25.550;2024-03-08T15:47:53;100075.47;;;5.18;82.16
37066;BME280;22981;43.080;25.550;2024-03-08T15:50:20;100075.00;;;5.18;82.13
37066;BME280;22981;43.080;25.550;2024-03-08T15:52:50;100080.78;;;5.18;82.06
37066;BME280;22981;43.080;25.550;2024-03-08T15:55:20;100082.47;;;5.15;82.10
37066;BME280;22981;43.080;25.550;2024-03-08T15:57:51;100088.09;;;5.16;82.07
37066;BME280;22981;43.080;25.550;2024-03-08T16:00:21;100092.08;;;5.16;82.06
37066;BME280;22981;43.080;25.550;2024-03-08T16:03:03;100085.13;;;5.15;82.09
37066;BME280;22981;43.080;25.550;2024-03-08T16:05:36;100091.77;;;5.11;82.00
37066;BME280;22981;43.080;25.550;2024-03-08T16:08:04;100101.20;;;5.09;81.98
37066;BME280;22981;43.080;25.550;2024-03-08T16:10:34;100093.42;;;5.08;82.00
37066;BME280;22981;43.080;25.550;2024-03-08T16:13:02;100096.26;;;5.02;82.00
37066;BME280;22981;43.080;25.550;2024-03-08T16:15:31;100096.08;;;4.99;81.95
37066;BME280;22981;43.080;25.550;2024-03-08T16:17:58;100095.94;;;4.97;82.02
37066;BME280;22981;43.080;25.550;2024-03-08T16:20:26;100100.06;;;4.99;82.06
37066;BME280;22981;43.080;25.550;2024-03-08T16:22:53;100094.11;;;5.01;82.03
37066;BME280;22981;43.080;25.550;2024-03-08T16:25:21;100101.21;;;5.01;82.07
37066;BME280;22981;43.080;25.550;2024-03-08T16:27:49;100102.89;;;5.02;81.97
37066;BME280;22981;43.080;25.550;2024-03-08T16:30:16;100101.21;;;5.01;81.85
37066;BME280;22981;43.080;25.550;2024-03-08T16:32:46;100103.72;;;4.98;81.77
37066;BME280;22981;43.080;25.550;2024-03-08T16:35:14;100103.55;;;4.96;81.81
37066;BME280;22981;43.080;25.550;2024-03-08T16:37:43;100105.88;;;4.95;81.82
37066;BME280;22981;43.080;25.550;2024-03-08T16:40:11;100108.85;;;4.96;81.79
37066;BME280;22981;43.080;25.550;2024-03-08T16:42:47;100103.90;;;4.97;81.81
37066;BME280;22981;43.080;25.550;2024-03-08T16:45:19;100109.35;;;4.99;81.77
37066;BME280;22981;43.080;25.550;2024-03-08T16:47:47;100109.85;;;4.99;81.82
37066;BME280;22981;43.080;25.550;2024-03-08T16:50:17;100118.45;;;5.01;81.84
37066;BME280;22981;43.080;25.550;2024-03-08T16:52:45;100118.96;;;5.00;81.80
37066;BME280;22981;43.080;25.550;2024-03-08T16:55:13;100118.45;;;5.01;81.81
37066;BME280;22981;43.080;25.550;2024-03-08T16:57:44;100118.64;;;4.99;81.77
37066;BME280;22981;43.080;25.550;2024-03-08T17:00:17;100122.62;;;4.99;81.78
37066;BME280;22981;43.080;25.550;2024-03-08T17:02:45;100122.12;;;4.96;81.74
37066;BME280;22981;43.080;25.550;2024-03-08T17:05:15;100128.75;;;4.96;81.70
37066;BME280;22981;43.080;25.550;2024-03-08T17:07:48;100123.95;;;4.95;81.69
37066;BME280;22981;43.080;25.550;2024-03-08T17:10:22;100122.62;;;4.95;81.73
37066;BME280;22981;43.080;25.550;2024-03-08T17:12:52;100132.59;;;4.97;81.82
37066;BME280;22981;43.080;25.550;2024-03-08T17:15:21;100127.78;;;4.97;81.78